sensor_id;sensor_type;location;lat;lon;timestamp;temperature;humidity
43697;DHT22;29301;47.620;19.560;2023-04-25T00:01:13;12.60;99.90
43697;DHT22;29301;47.620;19.560;2023-04-25T00:03:39;12.60;99.90
43697;DHT22;29301;47.620;19.560;2023-04-25T00:06:06;12.50;99.90
43697;DHT22;29301;47.620;19.560;2023-04-25T00:08:32;12.50;99.90
43697;DHT22;29301;47.620;19.560;2023-04-25T00:10:58;12.60;99.90
43697;DHT22;29301;47.620;19.560;2023-04-25T00:13:25;12.50;99.90
43697;DHT22;29301;47.620;19.560;2023-04-25T00:15:51;12.40;99.90
43697;DHT22;29301;47.620;19.560;2023-04-25T00:18:19;12.50;99.90
43697;DHT22;29301;47.620;19.560;2023-04-25T00:20:45;12.50;99.90
43697;DHT22;29301;47.620;19.560;2023-04-25T00:23:12;12.40;99.90
43697;DHT22;29301;47.620;19.560;2023-04-25T00:25:47;12.40;99.90
43697;DHT22;29301;47.620;19.560;2023-04-25T00:28:13;12.40;99.90
43697;DHT22;29301;47.620;19.560;2023-04-25T00:30:39;12.40;99.90
43697;DHT22;29301;47.620;19.560;2023-04-25T00:33:05;12.40;99.90
43697;DHT22;29301;47.620;19.560;2023-04-25T00:35:31;12.40;99.90
43697;DHT22;29301;47.620;19.560;2023-04-25T00:37:57;12.50;99.90
43697;DHT22;29301;47.620;19.560;2023-04-25T00:40:22;12.40;99.90
43697;DHT22;29301;47.620;19.560;2023-04-25T00:42:49;12.40;99.90
43697;DHT22;29301;47.620;19.560;2023-04-25T00:45:15;12.40;99.90
43697;DHT22;29301;47.620;19.560;2023-04-25T00:47:41;12.40;99.90
43697;DHT22;29301;47.620;19.560;2023-04-25T00:50:08;12.40;99.90
43697;DHT22;29301;47.620;19.560;2023-04-25T00:52:34;12.40;99.90
43697;DHT22;29301;47.620;19.560;2023-04-25T00:55:00;12.40;99.90
43697;DHT22;29301;47.620;19.560;2023-04-25T00:57:26;12.40;99.90
43697;DHT22;29301;47.620;19.560;2023-04-25T00:59:52;12.40;99.90
43697;DHT22;29301;47.620;19.560;2023-04-25T01:02:19;12.40;99.90
43697;DHT22;29301;47.620;19.560;2023-04-25T01:04:46;12.40;99.90
43697;DHT22;29301;47.620;19.560;2023-04-25T01:07:13;12.40;99.90
43697;DHT22;29301;47.620;19.560;2023-04-25T01:09:39;12.40;99.90
43697;DHT22;29301;47.620;19.560;2023-04-25T01:12:04;12.40;99.90
43697;DHT22;29301;47.620;19.560;2023-04-25T01:14:31;12.40;99.90
43697;DHT22;29301;47.620;19.560;2023-04-25T01:16:57;12.40;99.90
43697;DHT22;29301;47.620;19.560;2023-04-25T01:19:23;12.30;99.90
43697;DHT22;29301;47.620;19.560;2023-04-25T01:21:50;12.30;99.90
43697;DHT22;29301;47.620;19.560;2023-04-25T01:24:16;12.20;99.90
43697;DHT22;29301;47.620;19.560;2023-04-25T01:26:43;12.20;99.90
43697;DHT22;29301;47.620;19.560;2023-04-25T01:29:21;12.30;99.90
43697;DHT22;29301;47.620;19.560;2023-04-25T01:31:47;12.20;99.90
43697;DHT22;29301;47.620;19.560;2023-04-25T01:34:13;12.30;99.90
43697;DHT22;29301;47.620;19.560;2023-04-25T01:36:39;12.30;99.90
43697;DHT22;29301;47.620;19.560;2023-04-25T01:39:05;12.20;99.90
43697;DHT22;29301;47.620;19.560;2023-04-25T01:41:32;12.30;99.90
43697;DHT22;29301;47.620;19.560;2023-04-25T01:43:57;12.30;99.90
43697;DHT22;29301;47.620;19.560;2023-04-25T01:46:23;12.30;99.90
43697;DHT22;29301;47.620;19.560;2023-04-25T01:48:49;12.30;99.90
43697;DHT22;29301;47.620;19.560;2023-04-25T01:51:15;12.20;99.90
43697;DHT22;29301;47.620;19.560;2023-04-25T01:53:41;12.20;99.90
43697;DHT22;29301;47.620;19.560;2023-04-25T01:56:07;12.20;99.90
43697;DHT22;29301;47.620;19.560;2023-04-25T01:58:33;12.20;99.90
43697;DHT22;29301;47.620;19.560;2023-04-25T02:00:59;12.10;99.90
43697;DHT22;29301;47.620;19.560;2023-04-25T02:03:25;12.20;99.90
43697;DHT22;29301;47.620;19.560;2023-04-25T02:05:50;12.10;99.90
43697;DHT22;29301;47.620;19.560;2023-04-25T02:08:17;12.00;99.90
43697;DHT22;29301;47.620;19.560;2023-04-25T02:10:43;12.00;99.90
43697;DHT22;29301;47.620;19.560;2023-04-25T02:13:08;12.00;99.90
43697;DHT22;29301;47.620;19.560;2023-04-25T02:15:34;12.00;99.90
43697;DHT22;29301;47.620;19.560;2023-04-25T02:18:00;12.00;99.90
43697;DHT22;29301;47.620;19.560;2023-04-25T02:20:26;12.00;99.90
43697;DHT22;29301;47.620;19.560;2023-04-25T02:22:52;12.00;99.90
43697;DHT22;29301;47.620;19.560;2023-04-25T02:25:19;12.00;99.90
43697;DHT22;29301;47.620;19.560;2023-04-25T02:27:46;12.00;99.90
43697;DHT22;29301;47.620;19.560;2023-04-25T02:30:12;12.00;99.90
43697;DHT22;29301;47.620;19.560;2023-04-25T02:32:39;11.90;99.90
43697;DHT22;29301;47.620;19.560;2023-04-25T02:35:06;11.80;99.90
43697;DHT22;29301;47.620;19.560;2023-04-25T02:37:33;11.80;99.90
43697;DHT22;29301;47.620;19.560;2023-04-25T02:39:59;11.80;99.90
43697;DHT22;29301;47.620;19.560;2023-04-25T02:42:25;11.80;99.90
43697;DHT22;29301;47.620;19.560;2023-04-25T02:44:51;11.80;99.90
43697;DHT22;29301;47.620;19.560;2023-04-25T02:47:16;11.80;99.90
43697;DHT22;29301;47.620;19.560;2023-04-25T02:49:42;11.70;99.90
43697;DHT22;29301;47.620;19.560;2023-04-25T02:52:08;11.70;99.90
43697;DHT22;29301;47.620;19.560;2023-04-25T02:54:34;11.80;99.90
43697;DHT22;29301;47.620;19.560;2023-04-25T02:57:00;11.80;99.90
43697;DHT22;29301;47.620;19.560;2023-04-25T02:59:26;11.80;99.90
43697;DHT22;29301;47.620;19.560;2023-04-25T03:01:52;11.80;99.90
43697;DHT22;29301;47.620;19.560;2023-04-25T03:04:17;11.80;99.90
43697;DHT22;29301;47.620;19.560;2023-04-25T03:06:44;11.90;99.90
43697;DHT22;29301;47.620;19.560;2023-04-25T03:09:10;11.90;99.90
43697;DHT22;29301;47.620;19.560;2023-04-25T03:11:38;11.90;99.90
43697;DHT22;29301;47.620;19.560;2023-04-25T03:14:04;11.80;99.90
43697;DHT22;29301;47.620;19.560;2023-04-25T03:16:30;11.80;99.90
43697;DHT22;29301;47.620;19.560;2023-04-25T03:18:56;11.80;99.90
43697;DHT22;29301;47.620;19.560;2023-04-25T03:21:22;11.80;99.90
43697;DHT22;29301;47.620;19.560;2023-04-25T03:23:48;11.80;99.90
43697;DHT22;29301;47.620;19.560;2023-04-25T03:26:13;11.70;99.90
43697;DHT22;29301;47.620;19.560;2023-04-25T03:28:39;11.70;99.90
43697;DHT22;29301;47.620;19.560;2023-04-25T03:31:05;11.70;99.90
43697;DHT22;29301;47.620;19.560;2023-04-25T03:33:31;11.70;99.90
43697;DHT22;29301;47.620;19.560;2023-04-25T03:35:57;11.70;99.90
43697;DHT22;29301;47.620;19.560;2023-04-25T03:38:23;11.80;99.90
43697;DHT22;29301;47.620;19.560;2023-04-25T03:40:49;11.80;99.90
43697;DHT22;29301;47.620;19.560;2023-04-25T03:43:16;11.80;99.90
43697;DHT22;29301;47.620;19.560;2023-04-25T03:45:42;11.80;99.90
43697;DHT22;29301;47.620;19.560;2023-04-25T03:48:08;11.80;99.90
43697;DHT22;29301;47.620;19.560;2023-04-25T03:50:33;11.80;99.90
43697;DHT22;29301;47.620;19.560;2023-04-25T03:52:59;11.80;99.90
43697;DHT22;29301;47.620;19.560;2023-04-25T03:55:25;11.80;99.90
43697;DHT22;29301;47.620;19.560;2023-04-25T03:57:50;11.80;99.90
43697;DHT22;29301;47.620;19.560;2023-04-25T04:00:16;11.90;99.80
43697;DHT22;29301;47.620;19.560;2023-04-25T04:02:42;11.80;99.70
43697;DHT22;29301;47.620;19.560;2023-04-25T04:05:08;11.80;99.70
43697;DHT22;29301;47.620;19.560;2023-04-25T04:07:34;11.80;99.80
43697;DHT22;29301;47.620;19.560;2023-04-25T04:10:11;11.80;99.90
43697;DHT22;29301;47.620;19.560;2023-04-25T04:12:37;11.80;99.70
43697;DHT22;29301;47.620;19.560;2023-04-25T04:15:07;11.80;99.30
43697;DHT22;29301;47.620;19.560;2023-04-25T04:17:33;11.80;98.40
43697;DHT22;29301;47.620;19.560;2023-04-25T04:19:59;11.80;97.80
43697;DHT22;29301;47.620;19.560;2023-04-25T04:22:25;11.70;97.40
43697;DHT22;29301;47.620;19.560;2023-04-25T04:24:51;11.70;96.90
43697;DHT22;29301;47.620;19.560;2023-04-25T04:27:21;11.60;96.80
43697;DHT22;29301;47.620;19.560;2023-04-25T04:29:47;11.60;97.20
43697;DHT22;29301;47.620;19.560;2023-04-25T04:32:14;11.60;97.10
43697;DHT22;29301;47.620;19.560;2023-04-25T04:34:40;11.60;97.20
43697;DHT22;29301;47.620;19.560;2023-04-25T04:37:06;11.60;97.10
43697;DHT22;29301;47.620;19.560;2023-04-25T04:39:33;11.60;96.30
43697;DHT22;29301;47.620;19.560;2023-04-25T04:41:59;11.50;96.80
43697;DHT22;29301;47.620;19.560;2023-04-25T04:44:27;11.50;96.80
43697;DHT22;29301;47.620;19.560;2023-04-25T04:46:54;11.60;97.00
43697;DHT22;29301;47.620;19.560;2023-04-25T04:49:20;11.60;96.80
43697;DHT22;29301;47.620;19.560;2023-04-25T04:51:46;11.70;96.70
43697;DHT22;29301;47.620;19.560;2023-04-25T04:54:12;11.70;96.50
43697;DHT22;29301;47.620;19.560;2023-04-25T04:56:38;11.70;96.20
43697;DHT22;29301;47.620;19.560;2023-04-25T04:59:04;11.70;96.30
43697;DHT22;29301;47.620;19.560;2023-04-25T05:01:30;11.60;96.30
43697;DHT22;29301;47.620;19.560;2023-04-25T05:03:56;11.60;96.40
43697;DHT22;29301;47.620;19.560;2023-04-25T05:06:26;11.60;96.50
43697;DHT22;29301;47.620;19.560;2023-04-25T05:08:52;11.50;96.70
43697;DHT22;29301;47.620;19.560;2023-04-25T05:11:19;11.50;97.40
43697;DHT22;29301;47.620;19.560;2023-04-25T05:13:45;11.50;97.70
43697;DHT22;29301;47.620;19.560;2023-04-25T05:16:11;11.50;98.20
43697;DHT22;29301;47.620;19.560;2023-04-25T05:18:39;11.50;98.70
43697;DHT22;29301;47.620;19.560;2023-04-25T05:21:05;11.50;99.00
43697;DHT22;29301;47.620;19.560;2023-04-25T05:23:31;11.50;99.70
43697;DHT22;29301;47.620;19.560;2023-04-25T05:25:57;11.50;99.90
43697;DHT22;29301;47.620;19.560;2023-04-25T06:45:36;11.10;99.90
43697;DHT22;29301;47.620;19.560;2023-04-25T06:48:02;11.40;99.90
43697;DHT22;29301;47.620;19.560;2023-04-25T06:50:27;11.40;99.90
43697;DHT22;29301;47.620;19.560;2023-04-25T06:52:53;11.30;99.90
43697;DHT22;29301;47.620;19.560;2023-04-25T06:55:19;11.40;99.90
43697;DHT22;29301;47.620;19.560;2023-04-25T06:57:45;11.40;99.90
43697;DHT22;29301;47.620;19.560;2023-04-25T07:00:11;11.40;99.90
43697;DHT22;29301;47.620;19.560;2023-04-25T07:02:37;11.40;99.90
43697;DHT22;29301;47.620;19.560;2023-04-25T07:05:03;11.30;99.90
43697;DHT22;29301;47.620;19.560;2023-04-25T07:07:30;11.20;99.90
43697;DHT22;29301;47.620;19.560;2023-04-25T07:09:56;11.20;99.90
43697;DHT22;29301;47.620;19.560;2023-04-25T07:12:22;11.30;99.90
43697;DHT22;29301;47.620;19.560;2023-04-25T07:14:47;11.30;99.90
43697;DHT22;29301;47.620;19.560;2023-04-25T07:17:13;11.20;99.90
43697;DHT22;29301;47.620;19.560;2023-04-25T07:19:39;11.30;99.90
43697;DHT22;29301;47.620;19.560;2023-04-25T07:22:06;11.30;99.90
43697;DHT22;29301;47.620;19.560;2023-04-25T07:24:32;11.30;99.90
43697;DHT22;29301;47.620;19.560;2023-04-25T07:26:58;11.30;99.90
43697;DHT22;29301;47.620;19.560;2023-04-25T07:29:23;11.30;99.90
43697;DHT22;29301;47.620;19.560;2023-04-25T07:31:50;11.30;99.90
43697;DHT22;29301;47.620;19.560;2023-04-25T07:34:15;11.20;99.90
43697;DHT22;29301;47.620;19.560;2023-04-25T07:36:41;11.20;99.90
43697;DHT22;29301;47.620;19.560;2023-04-25T07:39:07;11.20;99.90
43697;DHT22;29301;47.620;19.560;2023-04-25T07:41:34;11.10;99.90
43697;DHT22;29301;47.620;19.560;2023-04-25T07:44:00;11.10;99.90
43697;DHT22;29301;47.620;19.560;2023-04-25T07:46:26;11.10;99.90
43697;DHT22;29301;47.620;19.560;2023-04-25T07:48:51;11.10;99.90
43697;DHT22;29301;47.620;19.560;2023-04-25T07:51:17;11.10;99.90
43697;DHT22;29301;47.620;19.560;2023-04-25T07:53:45;11.20;99.90
43697;DHT22;29301;47.620;19.560;2023-04-25T07:56:11;11.30;99.90
43697;DHT22;29301;47.620;19.560;2023-04-25T07:58:37;11.40;99.90
43697;DHT22;29301;47.620;19.560;2023-04-25T08:01:03;11.40;99.90
43697;DHT22;29301;47.620;19.560;2023-04-25T08:03:29;11.40;99.90
43697;DHT22;29301;47.620;19.560;2023-04-25T08:05:54;11.40;99.90
43697;DHT22;29301;47.620;19.560;2023-04-25T08:08:20;11.40;99.90
43697;DHT22;29301;47.620;19.560;2023-04-25T08:10:46;11.40;99.90
43697;DHT22;29301;47.620;19.560;2023-04-25T08:13:13;11.40;99.90
43697;DHT22;29301;47.620;19.560;2023-04-25T08:15:39;11.40;99.90
43697;DHT22;29301;47.620;19.560;2023-04-25T08:18:05;11.50;99.90
43697;DHT22;29301;47.620;19.560;2023-04-25T08:20:30;11.60;99.90
43697;DHT22;29301;47.620;19.560;2023-04-25T08:22:56;11.70;99.90
43697;DHT22;29301;47.620;19.560;2023-04-25T08:25:22;11.60;99.90
43697;DHT22;29301;47.620;19.560;2023-04-25T08:27:48;11.70;99.90
43697;DHT22;29301;47.620;19.560;2023-04-25T08:30:13;11.70;99.90
43697;DHT22;29301;47.620;19.560;2023-04-25T09:04:46;12.70;99.90
43697;DHT22;29301;47.620;19.560;2023-04-25T09:07:13;13.30;97.90
43697;DHT22;29301;47.620;19.560;2023-04-25T09:09:41;13.10;95.30
43697;DHT22;29301;47.620;19.560;2023-04-25T09:12:07;13.10;95.80
43697;DHT22;29301;47.620;19.560;2023-04-25T09:14:33;13.10;96.00
43697;DHT22;29301;47.620;19.560;2023-04-25T09:17:01;13.30;96.60
43697;DHT22;29301;47.620;19.560;2023-04-25T09:21:57;13.40;93.60
43697;DHT22;29301;47.620;19.560;2023-04-25T09:24:43;13.50;91.70
43697;DHT22;29301;47.620;19.560;2023-04-25T09:27:12;13.50;89.20
43697;DHT22;29301;47.620;19.560;2023-04-25T09:29:39;13.70;91.40
43697;DHT22;29301;47.620;19.560;2023-04-25T09:34:44;13.90;91.00
43697;DHT22;29301;47.620;19.560;2023-04-25T09:37:10;14.00;90.40
43697;DHT22;29301;47.620;19.560;2023-04-25T09:39:39;14.00;88.30
43697;DHT22;29301;47.620;19.560;2023-04-25T09:42:05;14.00;89.20
43697;DHT22;29301;47.620;19.560;2023-04-25T09:44:32;14.00;88.20
43697;DHT22;29301;47.620;19.560;2023-04-25T09:46:57;14.10;83.90
43697;DHT22;29301;47.620;19.560;2023-04-25T09:49:25;14.20;86.20
43697;DHT22;29301;47.620;19.560;2023-04-25T09:51:58;14.30;85.50
43697;DHT22;29301;47.620;19.560;2023-04-25T09:54:24;14.30;82.60
43697;DHT22;29301;47.620;19.560;2023-04-25T09:56:51;14.40;81.30
43697;DHT22;29301;47.620;19.560;2023-04-25T09:59:21;14.60;80.00
43697;DHT22;29301;47.620;19.560;2023-04-25T10:01:50;14.70;76.60
43697;DHT22;29301;47.620;19.560;2023-04-25T10:04:20;14.80;75.80
43697;DHT22;29301;47.620;19.560;2023-04-25T10:06:48;14.90;74.50
43697;DHT22;29301;47.620;19.560;2023-04-25T10:09:15;15.00;74.10
43697;DHT22;29301;47.620;19.560;2023-04-25T10:11:41;15.00;69.60
43697;DHT22;29301;47.620;19.560;2023-04-25T10:14:07;14.80;69.10
43697;DHT22;29301;47.620;19.560;2023-04-25T10:16:33;14.70;68.20
43697;DHT22;29301;47.620;19.560;2023-04-25T10:18:59;14.70;66.50
43697;DHT22;29301;47.620;19.560;2023-04-25T10:21:26;14.70;66.90
43697;DHT22;29301;47.620;19.560;2023-04-25T10:23:54;14.60;66.40
43697;DHT22;29301;47.620;19.560;2023-04-25T10:26:20;14.60;65.10
43697;DHT22;29301;47.620;19.560;2023-04-25T10:29:01;14.50;62.80
43697;DHT22;29301;47.620;19.560;2023-04-25T10:31:29;14.50;65.10
43697;DHT22;29301;47.620;19.560;2023-04-25T10:33:56;14.40;65.00
43697;DHT22;29301;47.620;19.560;2023-04-25T10:36:23;14.20;66.10
43697;DHT22;29301;47.620;19.560;2023-04-25T10:38:50;14.20;65.50
43697;DHT22;29301;47.620;19.560;2023-04-25T10:41:20;14.20;64.80
43697;DHT22;29301;47.620;19.560;2023-04-25T10:43:49;14.20;63.00
43697;DHT22;29301;47.620;19.560;2023-04-25T10:46:21;14.10;63.40
43697;DHT22;29301;47.620;19.560;2023-04-25T10:48:54;14.10;65.00
43697;DHT22;29301;47.620;19.560;2023-04-25T10:51:25;14.10;66.10
43697;DHT22;29301;47.620;19.560;2023-04-25T10:54:06;14.10;63.50
43697;DHT22;29301;47.620;19.560;2023-04-25T10:56:41;14.00;63.20
43697;DHT22;29301;47.620;19.560;2023-04-25T11:01:43;14.00;63.40
43697;DHT22;29301;47.620;19.560;2023-04-25T11:04:32;14.00;64.10
43697;DHT22;29301;47.620;19.560;2023-04-25T11:07:09;14.00;64.20
43697;DHT22;29301;47.620;19.560;2023-04-25T11:09:38;14.10;62.90
43697;DHT22;29301;47.620;19.560;2023-04-25T11:12:06;14.00;63.30
43697;DHT22;29301;47.620;19.560;2023-04-25T11:14:32;14.00;64.30
43697;DHT22;29301;47.620;19.560;2023-04-25T11:16:58;14.10;64.20
43697;DHT22;29301;47.620;19.560;2023-04-25T11:19:25;14.10;63.00
43697;DHT22;29301;47.620;19.560;2023-04-25T11:21:55;14.10;63.40
43697;DHT22;29301;47.620;19.560;2023-04-25T11:24:27;14.10;63.90
43697;DHT22;29301;47.620;19.560;2023-04-25T11:26:53;14.00;63.30
43697;DHT22;29301;47.620;19.560;2023-04-25T11:29:21;14.10;61.80
43697;DHT22;29301;47.620;19.560;2023-04-25T11:31:47;14.10;61.70
43697;DHT22;29301;47.620;19.560;2023-04-25T11:34:20;14.00;60.60
43697;DHT22;29301;47.620;19.560;2023-04-25T11:36:46;13.90;61.00
43697;DHT22;29301;47.620;19.560;2023-04-25T11:39:12;13.90;62.50
43697;DHT22;29301;47.620;19.560;2023-04-25T11:41:38;14.00;62.30
43697;DHT22;29301;47.620;19.560;2023-04-25T11:44:04;14.00;62.10
43697;DHT22;29301;47.620;19.560;2023-04-25T11:46:33;14.10;62.50
43697;DHT22;29301;47.620;19.560;2023-04-25T11:48:59;14.20;61.90
43697;DHT22;29301;47.620;19.560;2023-04-25T11:51:25;14.20;62.10
43697;DHT22;29301;47.620;19.560;2023-04-25T11:53:51;14.30;61.00
43697;DHT22;29301;47.620;19.560;2023-04-25T11:56:17;14.30;60.30
43697;DHT22;29301;47.620;19.560;2023-04-25T12:01:32;14.40;58.80
43697;DHT22;29301;47.620;19.560;2023-04-25T12:03:58;14.40;56.80
43697;DHT22;29301;47.620;19.560;2023-04-25T12:06:30;14.20;57.70
43697;DHT22;29301;47.620;19.560;2023-04-25T12:09:04;14.20;57.90
43697;DHT22;29301;47.620;19.560;2023-04-25T12:11:41;14.30;57.60
43697;DHT22;29301;47.620;19.560;2023-04-25T12:14:07;14.30;58.50
43697;DHT22;29301;47.620;19.560;2023-04-25T12:16:45;14.40;56.70
43697;DHT22;29301;47.620;19.560;2023-04-25T12:19:15;14.50;57.10
43697;DHT22;29301;47.620;19.560;2023-04-25T12:21:41;14.70;57.00
43697;DHT22;29301;47.620;19.560;2023-04-25T12:24:16;14.90;56.80
43697;DHT22;29301;47.620;19.560;2023-04-25T12:27:09;15.00;55.30
43697;DHT22;29301;47.620;19.560;2023-04-25T12:29:34;15.00;54.00
43697;DHT22;29301;47.620;19.560;2023-04-25T12:32:00;14.90;52.70
43697;DHT22;29301;47.620;19.560;2023-04-25T12:34:27;14.80;52.60
43697;DHT22;29301;47.620;19.560;2023-04-25T12:36:53;14.80;53.10
43697;DHT22;29301;47.620;19.560;2023-04-25T12:39:23;14.80;52.30
43697;DHT22;29301;47.620;19.560;2023-04-25T12:41:50;14.70;52.20
43697;DHT22;29301;47.620;19.560;2023-04-25T12:44:16;14.70;52.70
43697;DHT22;29301;47.620;19.560;2023-04-25T12:46:42;14.70;52.90
43697;DHT22;29301;47.620;19.560;2023-04-25T12:49:08;14.70;53.10
43697;DHT22;29301;47.620;19.560;2023-04-25T12:51:34;14.80;52.50
43697;DHT22;29301;47.620;19.560;2023-04-25T12:54:01;14.80;52.00
43697;DHT22;29301;47.620;19.560;2023-04-25T12:56:27;14.80;52.70
43697;DHT22;29301;47.620;19.560;2023-04-25T12:58:53;14.70;51.40
43697;DHT22;29301;47.620;19.560;2023-04-25T13:01:20;14.70;53.10
43697;DHT22;29301;47.620;19.560;2023-04-25T13:03:46;14.60;53.40
43697;DHT22;29301;47.620;19.560;2023-04-25T13:06:13;14.60;53.60
43697;DHT22;29301;47.620;19.560;2023-04-25T13:08:39;14.60;54.30
43697;DHT22;29301;47.620;19.560;2023-04-25T13:11:06;14.60;54.70
43697;DHT22;29301;47.620;19.560;2023-04-25T13:13:32;14.60;55.30
43697;DHT22;29301;47.620;19.560;2023-04-25T13:16:00;14.60;55.80
43697;DHT22;29301;47.620;19.560;2023-04-25T13:18:26;14.60;55.60
43697;DHT22;29301;47.620;19.560;2023-04-25T13:20:55;14.70;55.30
43697;DHT22;29301;47.620;19.560;2023-04-25T13:23:21;14.70;54.30
43697;DHT22;29301;47.620;19.560;2023-04-25T13:25:47;14.80;55.40
43697;DHT22;29301;47.620;19.560;2023-04-25T13:28:13;14.70;54.70
43697;DHT22;29301;47.620;19.560;2023-04-25T13:30:39;14.70;55.20
43697;DHT22;29301;47.620;19.560;2023-04-25T13:33:05;14.80;56.80
43697;DHT22;29301;47.620;19.560;2023-04-25T13:35:33;14.90;56.70
43697;DHT22;29301;47.620;19.560;2023-04-25T13:38:00;15.00;53.70
43697;DHT22;29301;47.620;19.560;2023-04-25T13:40:26;15.10;52.00
43697;DHT22;29301;47.620;19.560;2023-04-25T13:42:52;15.10;50.70
43697;DHT22;29301;47.620;19.560;2023-04-25T13:45:19;15.20;49.50
43697;DHT22;29301;47.620;19.560;2023-04-25T13:47:45;15.30;49.00
43697;DHT22;29301;47.620;19.560;2023-04-25T13:50:11;15.60;47.50
43697;DHT22;29301;47.620;19.560;2023-04-25T13:52:37;15.70;46.50
43697;DHT22;29301;47.620;19.560;2023-04-25T13:55:03;16.00;45.80
43697;DHT22;29301;47.620;19.560;2023-04-25T13:57:30;16.10;45.60
43697;DHT22;29301;47.620;19.560;2023-04-25T13:59:56;16.20;44.40
43697;DHT22;29301;47.620;19.560;2023-04-25T14:02:22;16.20;43.50
43697;DHT22;29301;47.620;19.560;2023-04-25T14:04:48;16.20;43.40
43697;DHT22;29301;47.620;19.560;2023-04-25T14:07:14;16.30;43.60
43697;DHT22;29301;47.620;19.560;2023-04-25T14:09:43;16.40;42.80
43697;DHT22;29301;47.620;19.560;2023-04-25T14:12:09;16.20;41.50
43697;DHT22;29301;47.620;19.560;2023-04-25T14:14:35;16.10;42.20
43697;DHT22;29301;47.620;19.560;2023-04-25T14:17:01;16.00;42.60
43697;DHT22;29301;47.620;19.560;2023-04-25T14:19:27;16.00;42.40
43697;DHT22;29301;47.620;19.560;2023-04-25T14:21:54;16.10;41.60
43697;DHT22;29301;47.620;19.560;2023-04-25T14:24:19;16.20;40.90
43697;DHT22;29301;47.620;19.560;2023-04-25T14:26:45;16.10;40.90
43697;DHT22;29301;47.620;19.560;2023-04-25T14:29:11;16.10;40.60
43697;DHT22;29301;47.620;19.560;2023-04-25T14:31:38;16.00;41.80
43697;DHT22;29301;47.620;19.560;2023-04-25T14:34:07;15.90;40.00
43697;DHT22;29301;47.620;19.560;2023-04-25T14:36:33;15.70;40.50
43697;DHT22;29301;47.620;19.560;2023-04-25T14:38:59;15.60;41.30
43697;DHT22;29301;47.620;19.560;2023-04-25T14:41:25;15.60;41.00
43697;DHT22;29301;47.620;19.560;2023-04-25T14:43:52;15.60;39.80
43697;DHT22;29301;47.620;19.560;2023-04-25T14:46:19;15.60;40.30
43697;DHT22;29301;47.620;19.560;2023-04-25T14:48:45;15.60;41.30
43697;DHT22;29301;47.620;19.560;2023-04-25T14:51:11;15.70;40.90
43697;DHT22;29301;47.620;19.560;2023-04-25T14:53:39;15.80;41.30
43697;DHT22;29301;47.620;19.560;2023-04-25T14:56:07;15.90;40.60
43697;DHT22;29301;47.620;19.560;2023-04-25T14:58:35;16.00;40.50
43697;DHT22;29301;47.620;19.560;2023-04-25T15:01:01;16.00;39.50
43697;DHT22;29301;47.620;19.560;2023-04-25T15:03:26;16.00;38.50
43697;DHT22;29301;47.620;19.560;2023-04-25T15:05:55;16.00;38.50
43697;DHT22;29301;47.620;19.560;2023-04-25T15:08:21;16.10;38.10
43697;DHT22;29301;47.620;19.560;2023-04-25T15:10:47;16.20;37.80
43697;DHT22;29301;47.620;19.560;2023-04-25T15:13:13;16.20;37.20
43697;DHT22;29301;47.620;19.560;2023-04-25T15:15:38;16.30;38.20
43697;DHT22;29301;47.620;19.560;2023-04-25T15:18:05;16.30;37.80
43697;DHT22;29301;47.620;19.560;2023-04-25T15:20:31;16.20;37.60
43697;DHT22;29301;47.620;19.560;2023-04-25T15:22:57;16.20;38.40
43697;DHT22;29301;47.620;19.560;2023-04-25T15:25:23;16.20;38.70
43697;DHT22;29301;47.620;19.560;2023-04-25T15:27:49;16.10;39.30
43697;DHT22;29301;47.620;19.560;2023-04-25T15:30:17;16.10;38.80
43697;DHT22;29301;47.620;19.560;2023-04-25T15:32:44;16.00;38.30
43697;DHT22;29301;47.620;19.560;2023-04-25T15:35:11;15.90;38.50
43697;DHT22;29301;47.620;19.560;2023-04-25T15:37:37;15.90;36.80
43697;DHT22;29301;47.620;19.560;2023-04-25T15:40:13;15.90;36.80
43697;DHT22;29301;47.620;19.560;2023-04-25T15:42:47;15.90;35.70
43697;DHT22;29301;47.620;19.560;2023-04-25T15:45:16;15.80;35.20
43697;DHT22;29301;47.620;19.560;2023-04-25T15:47:43;15.80;36.20
43697;DHT22;29301;47.620;19.560;2023-04-25T15:50:10;15.80;36.50
43697;DHT22;29301;47.620;19.560;2023-04-25T15:52:39;15.70;36.00
43697;DHT22;29301;47.620;19.560;2023-04-25T15:55:06;15.70;36.80
43697;DHT22;29301;47.620;19.560;2023-04-25T15:57:34;15.70;37.50
43697;DHT22;29301;47.620;19.560;2023-04-25T16:00:01;15.80;36.50
43697;DHT22;29301;47.620;19.560;2023-04-25T16:02:29;15.80;36.10
43697;DHT22;29301;47.620;19.560;2023-04-25T16:04:55;15.70;36.70
43697;DHT22;29301;47.620;19.560;2023-04-25T16:07:21;15.60;37.80
43697;DHT22;29301;47.620;19.560;2023-04-25T16:09:47;15.50;37.00
43697;DHT22;29301;47.620;19.560;2023-04-25T16:12:13;15.50;35.70
43697;DHT22;29301;47.620;19.560;2023-04-25T16:14:40;15.50;35.60
43697;DHT22;29301;47.620;19.560;2023-04-25T16:17:06;15.60;35.10
43697;DHT22;29301;47.620;19.560;2023-04-25T16:19:31;15.60;35.80
43697;DHT22;29301;47.620;19.560;2023-04-25T16:21:57;15.60;35.90
43697;DHT22;29301;47.620;19.560;2023-04-25T16:24:23;15.50;36.10
43697;DHT22;29301;47.620;19.560;2023-04-25T16:26:48;15.40;36.70
43697;DHT22;29301;47.620;19.560;2023-04-25T16:29:14;15.40;37.60
43697;DHT22;29301;47.620;19.560;2023-04-25T16:31:42;15.30;35.80
43697;DHT22;29301;47.620;19.560;2023-04-25T16:34:08;15.30;35.20
43697;DHT22;29301;47.620;19.560;2023-04-25T16:36:34;15.30;35.30
43697;DHT22;29301;47.620;19.560;2023-04-25T16:39:00;15.30;35.40
43697;DHT22;29301;47.620;19.560;2023-04-25T16:41:26;15.20;35.20
43697;DHT22;29301;47.620;19.560;2023-04-25T16:43:53;15.10;34.80
43697;DHT22;29301;47.620;19.560;2023-04-25T16:46:19;15.00;35.50
43697;DHT22;29301;47.620;19.560;2023-04-25T16:48:45;15.00;36.40
43697;DHT22;29301;47.620;19.560;2023-04-25T16:51:13;15.00;36.20
43697;DHT22;29301;47.620;19.560;2023-04-25T16:53:38;15.00;36.90
43697;DHT22;29301;47.620;19.560;2023-04-25T16:56:04;15.00;37.80
43697;DHT22;29301;47.620;19.560;2023-04-25T16:58:32;14.90;38.60
43697;DHT22;29301;47.620;19.560;2023-04-25T17:00:57;14.90;38.90
43697;DHT22;29301;47.620;19.560;2023-04-25T17:03:23;14.90;39.00
43697;DHT22;29301;47.620;19.560;2023-04-25T17:05:51;14.90;39.40
43697;DHT22;29301;47.620;19.560;2023-04-25T17:08:19;14.90;39.50
43697;DHT22;29301;47.620;19.560;2023-04-25T17:10:44;14.90;39.80
43697;DHT22;29301;47.620;19.560;2023-04-25T17:13:10;14.90;39.80